Aérodrome :
LOGIN :

S'inscrire | Disclaimer

   EN    FR    IT 

 










Légende :    VFR   VFR Marginal   IFR   IFR Intensif   IFR Très Intensif
Visi : 
Plafond : 
>= 8 km
>= 3000ft
5 à 8 km
1000 à 3000 ft
1500m à 5 km
500 à 1000 ft
800 à 1500m
200 à 500 ft
< 800m
< 200 ft
Symboles :   Orages  Brouillard  Fortes neiges  Fortes précipitations  Vent > 20 kt
SIGMETs :   Divers  Orages  Givrage  Turbulence  Onde Orograph.  Cendres Volcan.






- Altitude de l'aérodrome : 17 ft
- Code IATA : GRS


LIRS - Grosseto

DERNIER METAR :
  • 152155Z 03004KT 9999 SCT030 17/15 Q1013

METARs EXPIRÉS :
  • 152055Z 03003KT 9999 SCT035 17/15 Q1013 RMK BKN SCT070 VIS MIN 9999 WIND THR03 04003KT WIND THR21 02002KT BLU
  • 151955Z 03008KT 9999 FEW025 18/14 Q1013 RMK BKN SCT070 VIS MIN 9999 WIND THR03 03008KT WIND THR21 04007KT BLU

TAF TAF LIRS
Valide du 15 à 21h jusqu'au 16 à 06h UTC


152000Z 1521/1606 04008KT 9999 FEW020 SCT040



MET'MAP, la Météo Aéronautique d'un coup d'oeil ! - Copyright ORBIFLY Décembre 2007 - Disclaimer

ORBIFLY MET'MAP TEAM :

Programmation & Développement : Alexandra Zaïnal
Conception & Développement : Baudouin d'Aumeries
Co-Programmation & Développement : Marc-Olivier Méhu
Soutien technique & logistique : Manuel Goepfert

Contact : metmap@orbifly.com




SOURCES & CREDITS :

   NOAA